sensor_id;sensor_type;location;lat;lon;timestamp;temperature;humidity
6291;DHT22;3178;48.730;8.990;2023-03-16T00:00:03;1.40;99.90
6291;DHT22;3178;48.730;8.990;2023-03-16T00:02:33;1.40;99.90
6291;DHT22;3178;48.730;8.990;2023-03-16T00:04:59;1.40;99.90
6291;DHT22;3178;48.730;8.990;2023-03-16T00:07:25;1.40;99.90
6291;DHT22;3178;48.730;8.990;2023-03-16T00:09:51;1.20;99.90
6291;DHT22;3178;48.730;8.990;2023-03-16T00:12:17;1.30;99.90
6291;DHT22;3178;48.730;8.990;2023-03-16T00:14:47;1.40;99.90
6291;DHT22;3178;48.730;8.990;2023-03-16T00:17:15;1.30;99.90
6291;DHT22;3178;48.730;8.990;2023-03-16T00:19:55;1.30;99.90
6291;DHT22;3178;48.730;8.990;2023-03-16T00:22:28;1.30;99.90
6291;DHT22;3178;48.730;8.990;2023-03-16T00:24:55;1.30;99.90
6291;DHT22;3178;48.730;8.990;2023-03-16T00:27:23;1.30;99.90
6291;DHT22;3178;48.730;8.990;2023-03-16T00:29:50;1.30;99.90
6291;DHT22;3178;48.730;8.990;2023-03-16T00:32:28;1.30;99.90
6291;DHT22;3178;48.730;8.990;2023-03-16T00:34:54;1.30;99.90
6291;DHT22;3178;48.730;8.990;2023-03-16T00:37:21;1.20;99.90
6291;DHT22;3178;48.730;8.990;2023-03-16T00:39:48;1.30;99.90
6291;DHT22;3178;48.730;8.990;2023-03-16T00:42:15;1.20;99.90
6291;DHT22;3178;48.730;8.990;2023-03-16T00:44:41;1.20;99.90
6291;DHT22;3178;48.730;8.990;2023-03-16T00:47:07;1.30;99.90
6291;DHT22;3178;48.730;8.990;2023-03-16T00:49:34;1.20;99.90
6291;DHT22;3178;48.730;8.990;2023-03-16T00:52:05;1.20;99.90
6291;DHT22;3178;48.730;8.990;2023-03-16T00:54:31;1.20;99.90
6291;DHT22;3178;48.730;8.990;2023-03-16T00:57:01;1.20;99.90
6291;DHT22;3178;48.730;8.990;2023-03-16T00:59:27;1.20;99.90
6291;DHT22;3178;48.730;8.990;2023-03-16T01:01:53;1.20;99.90
6291;DHT22;3178;48.730;8.990;2023-03-16T01:04:20;1.20;99.90
6291;DHT22;3178;48.730;8.990;2023-03-16T01:06:46;1.20;99.90
6291;DHT22;3178;48.730;8.990;2023-03-16T01:09:12;1.10;99.90
6291;DHT22;3178;48.730;8.990;2023-03-16T01:11:40;1.10;99.90
6291;DHT22;3178;48.730;8.990;2023-03-16T01:14:08;1.10;99.90
6291;DHT22;3178;48.730;8.990;2023-03-16T01:16:34;1.10;99.90
6291;DHT22;3178;48.730;8.990;2023-03-16T01:18:59;1.10;99.90
6291;DHT22;3178;48.730;8.990;2023-03-16T01:21:25;1.00;99.90
6291;DHT22;3178;48.730;8.990;2023-03-16T01:23:51;1.00;99.90
6291;DHT22;3178;48.730;8.990;2023-03-16T01:26:18;1.00;99.90
6291;DHT22;3178;48.730;8.990;2023-03-16T01:28:45;1.00;99.90
6291;DHT22;3178;48.730;8.990;2023-03-16T01:31:12;1.00;99.90
6291;DHT22;3178;48.730;8.990;2023-03-16T01:33:39;0.90;99.90
6291;DHT22;3178;48.730;8.990;2023-03-16T01:36:10;1.00;99.90
6291;DHT22;3178;48.730;8.990;2023-03-16T01:38:36;1.00;99.90
6291;DHT22;3178;48.730;8.990;2023-03-16T01:41:03;0.90;99.90
6291;DHT22;3178;48.730;8.990;2023-03-16T01:43:30;0.90;99.90
6291;DHT22;3178;48.730;8.990;2023-03-16T01:51:05;0.90;99.90
6291;DHT22;3178;48.730;8.990;2023-03-16T01:53:33;0.90;99.90
6291;DHT22;3178;48.730;8.990;2023-03-16T01:56:02;0.90;99.90
6291;DHT22;3178;48.730;8.990;2023-03-16T01:58:30;0.90;99.90
6291;DHT22;3178;48.730;8.990;2023-03-16T02:00:56;0.80;99.90
6291;DHT22;3178;48.730;8.990;2023-03-16T02:03:24;0.90;99.90
6291;DHT22;3178;48.730;8.990;2023-03-16T02:08:32;0.80;99.90
6291;DHT22;3178;48.730;8.990;2023-03-16T02:10:59;0.80;99.90
6291;DHT22;3178;48.730;8.990;2023-03-16T02:13:25;0.80;99.90
6291;DHT22;3178;48.730;8.990;2023-03-16T02:15:54;0.80;99.90
6291;DHT22;3178;48.730;8.990;2023-03-16T02:18:20;0.70;99.90
6291;DHT22;3178;48.730;8.990;2023-03-16T02:21:08;0.80;99.90
6291;DHT22;3178;48.730;8.990;2023-03-16T02:23:36;0.70;99.90
6291;DHT22;3178;48.730;8.990;2023-03-16T02:26:09;0.70;99.90
6291;DHT22;3178;48.730;8.990;2023-03-16T02:31:23;0.70;99.90
6291;DHT22;3178;48.730;8.990;2023-03-16T02:33:49;0.70;99.90
6291;DHT22;3178;48.730;8.990;2023-03-16T02:36:18;0.60;99.90
6291;DHT22;3178;48.730;8.990;2023-03-16T02:38:44;0.70;99.90
6291;DHT22;3178;48.730;8.990;2023-03-16T02:41:16;0.70;99.90
6291;DHT22;3178;48.730;8.990;2023-03-16T02:43:54;0.60;99.90
6291;DHT22;3178;48.730;8.990;2023-03-16T02:46:26;0.60;99.90
6291;DHT22;3178;48.730;8.990;2023-03-16T02:48:59;0.60;99.90
6291;DHT22;3178;48.730;8.990;2023-03-16T02:51:27;0.60;99.90
6291;DHT22;3178;48.730;8.990;2023-03-16T02:53:53;0.60;99.90
6291;DHT22;3178;48.730;8.990;2023-03-16T02:56:18;0.50;99.90
6291;DHT22;3178;48.730;8.990;2023-03-16T02:58:44;0.50;99.90
6291;DHT22;3178;48.730;8.990;2023-03-16T03:01:09;0.50;99.90
6291;DHT22;3178;48.730;8.990;2023-03-16T03:03:35;0.50;99.90
6291;DHT22;3178;48.730;8.990;2023-03-16T03:06:01;0.50;99.90
6291;DHT22;3178;48.730;8.990;2023-03-16T03:08:26;0.60;99.90
6291;DHT22;3178;48.730;8.990;2023-03-16T03:10:52;0.50;99.90
6291;DHT22;3178;48.730;8.990;2023-03-16T03:13:17;0.50;99.90
6291;DHT22;3178;48.730;8.990;2023-03-16T03:15:43;0.50;99.90
6291;DHT22;3178;48.730;8.990;2023-03-16T03:18:09;0.50;99.90
6291;DHT22;3178;48.730;8.990;2023-03-16T03:20:35;0.50;99.90
6291;DHT22;3178;48.730;8.990;2023-03-16T03:23:01;0.40;99.90
6291;DHT22;3178;48.730;8.990;2023-03-16T03:25:27;0.60;99.90
6291;DHT22;3178;48.730;8.990;2023-03-16T03:27:53;0.40;99.90
6291;DHT22;3178;48.730;8.990;2023-03-16T03:30:20;0.40;99.90
6291;DHT22;3178;48.730;8.990;2023-03-16T03:32:47;0.40;99.90
6291;DHT22;3178;48.730;8.990;2023-03-16T03:35:14;0.40;99.90
6291;DHT22;3178;48.730;8.990;2023-03-16T03:37:41;0.40;99.90
6291;DHT22;3178;48.730;8.990;2023-03-16T03:40:10;0.40;99.90
6291;DHT22;3178;48.730;8.990;2023-03-16T03:42:36;0.40;99.90
6291;DHT22;3178;48.730;8.990;2023-03-16T03:45:02;0.40;99.90
6291;DHT22;3178;48.730;8.990;2023-03-16T03:47:28;0.40;99.90
6291;DHT22;3178;48.730;8.990;2023-03-16T03:49:53;0.50;99.90
6291;DHT22;3178;48.730;8.990;2023-03-16T03:52:19;0.40;99.90
6291;DHT22;3178;48.730;8.990;2023-03-16T03:54:45;0.40;99.90
6291;DHT22;3178;48.730;8.990;2023-03-16T03:57:10;0.40;99.90
6291;DHT22;3178;48.730;8.990;2023-03-16T03:59:36;0.40;99.90
6291;DHT22;3178;48.730;8.990;2023-03-16T04:02:07;0.40;99.90
6291;DHT22;3178;48.730;8.990;2023-03-16T04:04:33;0.40;99.90
6291;DHT22;3178;48.730;8.990;2023-03-16T04:06:58;0.40;99.90
6291;DHT22;3178;48.730;8.990;2023-03-16T04:09:24;0.40;99.90
6291;DHT22;3178;48.730;8.990;2023-03-16T04:11:50;0.30;99.90
6291;DHT22;3178;48.730;8.990;2023-03-16T04:14:15;0.30;99.90
6291;DHT22;3178;48.730;8.990;2023-03-16T04:16:41;0.50;99.90
6291;DHT22;3178;48.730;8.990;2023-03-16T04:19:09;0.30;99.90
6291;DHT22;3178;48.730;8.990;2023-03-16T04:21:37;0.40;99.90
6291;DHT22;3178;48.730;8.990;2023-03-16T04:24:02;0.30;99.90
6291;DHT22;3178;48.730;8.990;2023-03-16T04:26:30;0.30;99.90
6291;DHT22;3178;48.730;8.990;2023-03-16T04:28:56;0.30;99.90
6291;DHT22;3178;48.730;8.990;2023-03-16T04:31:22;0.30;99.90
6291;DHT22;3178;48.730;8.990;2023-03-16T04:33:48;0.30;99.90
6291;DHT22;3178;48.730;8.990;2023-03-16T04:36:14;0.30;99.90
6291;DHT22;3178;48.730;8.990;2023-03-16T04:38:39;0.30;99.90
6291;DHT22;3178;48.730;8.990;2023-03-16T04:41:06;0.30;99.90
6291;DHT22;3178;48.730;8.990;2023-03-16T04:43:32;0.30;99.90
6291;DHT22;3178;48.730;8.990;2023-03-16T04:45:59;0.20;99.90
6291;DHT22;3178;48.730;8.990;2023-03-16T04:48:26;0.20;99.90
6291;DHT22;3178;48.730;8.990;2023-03-16T04:50:52;0.20;99.90
6291;DHT22;3178;48.730;8.990;2023-03-16T04:53:18;0.30;99.90
6291;DHT22;3178;48.730;8.990;2023-03-16T04:55:45;0.30;99.90
6291;DHT22;3178;48.730;8.990;2023-03-16T04:58:10;0.20;99.90
6291;DHT22;3178;48.730;8.990;2023-03-16T05:00:38;0.30;99.90
6291;DHT22;3178;48.730;8.990;2023-03-16T05:03:05;0.20;99.90
6291;DHT22;3178;48.730;8.990;2023-03-16T05:05:31;0.20;99.90
6291;DHT22;3178;48.730;8.990;2023-03-16T05:07:56;0.20;99.90
6291;DHT22;3178;48.730;8.990;2023-03-16T05:10:22;0.20;99.90
6291;DHT22;3178;48.730;8.990;2023-03-16T05:12:47;0.20;99.90
6291;DHT22;3178;48.730;8.990;2023-03-16T05:15:13;0.20;99.90
6291;DHT22;3178;48.730;8.990;2023-03-16T05:17:42;0.20;99.90
6291;DHT22;3178;48.730;8.990;2023-03-16T05:20:12;0.20;99.90
6291;DHT22;3178;48.730;8.990;2023-03-16T05:22:42;0.10;99.90
6291;DHT22;3178;48.730;8.990;2023-03-16T05:25:09;0.20;99.90
6291;DHT22;3178;48.730;8.990;2023-03-16T05:27:49;0.20;99.90
6291;DHT22;3178;48.730;8.990;2023-03-16T05:30:16;0.10;99.90
6291;DHT22;3178;48.730;8.990;2023-03-16T05:32:43;0.10;99.90
6291;DHT22;3178;48.730;8.990;2023-03-16T05:35:10;0.10;99.90
6291;DHT22;3178;48.730;8.990;2023-03-16T05:37:40;0.10;99.90
6291;DHT22;3178;48.730;8.990;2023-03-16T05:40:07;0.10;99.90
6291;DHT22;3178;48.730;8.990;2023-03-16T05:42:56;0.00;99.90
6291;DHT22;3178;48.730;8.990;2023-03-16T05:45:22;0.10;99.90
6291;DHT22;3178;48.730;8.990;2023-03-16T05:47:48;0.00;99.90
6291;DHT22;3178;48.730;8.990;2023-03-16T05:50:14;0.10;99.90
6291;DHT22;3178;48.730;8.990;2023-03-16T05:52:42;0.00;99.90
6291;DHT22;3178;48.730;8.990;2023-03-16T05:55:09;0.10;99.90
6291;DHT22;3178;48.730;8.990;2023-03-16T05:57:35;0.10;99.90
6291;DHT22;3178;48.730;8.990;2023-03-16T06:00:04;-0.10;99.90
6291;DHT22;3178;48.730;8.990;2023-03-16T06:02:39;0.00;99.90
6291;DHT22;3178;48.730;8.990;2023-03-16T06:05:05;0.00;99.90
6291;DHT22;3178;48.730;8.990;2023-03-16T06:07:32;0.00;99.90
6291;DHT22;3178;48.730;8.990;2023-03-16T06:09:57;0.00;99.90
6291;DHT22;3178;48.730;8.990;2023-03-16T06:12:23;0.00;99.90
6291;DHT22;3178;48.730;8.990;2023-03-16T06:14:48;0.10;99.90
6291;DHT22;3178;48.730;8.990;2023-03-16T06:17:14;0.00;99.90
6291;DHT22;3178;48.730;8.990;2023-03-16T06:19:40;0.00;99.90
6291;DHT22;3178;48.730;8.990;2023-03-16T06:22:05;0.00;99.90
6291;DHT22;3178;48.730;8.990;2023-03-16T06:24:32;0.00;99.90
6291;DHT22;3178;48.730;8.990;2023-03-16T06:26:58;0.10;99.90
6291;DHT22;3178;48.730;8.990;2023-03-16T06:29:23;0.10;99.90
6291;DHT22;3178;48.730;8.990;2023-03-16T06:31:49;0.10;99.90
6291;DHT22;3178;48.730;8.990;2023-03-16T06:34:17;0.10;99.90
6291;DHT22;3178;48.730;8.990;2023-03-16T06:36:42;0.10;99.90
6291;DHT22;3178;48.730;8.990;2023-03-16T06:39:08;0.10;99.90
6291;DHT22;3178;48.730;8.990;2023-03-16T06:41:33;0.20;99.90
6291;DHT22;3178;48.730;8.990;2023-03-16T06:44:00;0.20;99.90
6291;DHT22;3178;48.730;8.990;2023-03-16T06:46:26;0.30;99.90
6291;DHT22;3178;48.730;8.990;2023-03-16T06:48:52;0.30;99.90
6291;DHT22;3178;48.730;8.990;2023-03-16T06:51:17;0.40;99.90
6291;DHT22;3178;48.730;8.990;2023-03-16T06:53:43;0.50;99.90
6291;DHT22;3178;48.730;8.990;2023-03-16T06:56:09;0.50;99.90
6291;DHT22;3178;48.730;8.990;2023-03-16T06:58:34;0.60;99.90
6291;DHT22;3178;48.730;8.990;2023-03-16T07:01:01;0.60;99.90
6291;DHT22;3178;48.730;8.990;2023-03-16T07:03:28;0.70;99.90
6291;DHT22;3178;48.730;8.990;2023-03-16T07:05:53;0.80;99.90
6291;DHT22;3178;48.730;8.990;2023-03-16T07:08:19;0.90;99.90
6291;DHT22;3178;48.730;8.990;2023-03-16T07:10:44;1.10;99.90
6291;DHT22;3178;48.730;8.990;2023-03-16T07:13:10;1.20;99.90
6291;DHT22;3178;48.730;8.990;2023-03-16T07:15:36;1.40;99.90
6291;DHT22;3178;48.730;8.990;2023-03-16T07:18:01;1.50;99.90
6291;DHT22;3178;48.730;8.990;2023-03-16T07:20:27;1.70;99.90
6291;DHT22;3178;48.730;8.990;2023-03-16T07:22:55;2.00;99.90
6291;DHT22;3178;48.730;8.990;2023-03-16T07:25:21;2.20;99.90
6291;DHT22;3178;48.730;8.990;2023-03-16T07:27:47;2.50;99.90
6291;DHT22;3178;48.730;8.990;2023-03-16T07:30:12;2.70;99.90
6291;DHT22;3178;48.730;8.990;2023-03-16T07:32:39;2.90;99.90
6291;DHT22;3178;48.730;8.990;2023-03-16T07:35:06;3.10;99.90
6291;DHT22;3178;48.730;8.990;2023-03-16T07:37:32;3.30;99.90
6291;DHT22;3178;48.730;8.990;2023-03-16T07:39:59;3.50;99.90
6291;DHT22;3178;48.730;8.990;2023-03-16T07:42:25;3.70;99.90
6291;DHT22;3178;48.730;8.990;2023-03-16T07:44:51;4.10;99.90
6291;DHT22;3178;48.730;8.990;2023-03-16T07:47:17;4.30;99.90
6291;DHT22;3178;48.730;8.990;2023-03-16T07:49:42;4.50;99.90
6291;DHT22;3178;48.730;8.990;2023-03-16T07:52:09;4.80;99.90
6291;DHT22;3178;48.730;8.990;2023-03-16T07:54:38;5.00;99.90
6291;DHT22;3178;48.730;8.990;2023-03-16T07:57:04;5.20;99.90
6291;DHT22;3178;48.730;8.990;2023-03-16T07:59:31;5.40;99.90
6291;DHT22;3178;48.730;8.990;2023-03-16T08:01:56;5.70;99.90
6291;DHT22;3178;48.730;8.990;2023-03-16T08:04:22;5.90;99.90
6291;DHT22;3178;48.730;8.990;2023-03-16T08:06:48;6.10;99.90
6291;DHT22;3178;48.730;8.990;2023-03-16T08:09:13;6.20;99.90
6291;DHT22;3178;48.730;8.990;2023-03-16T08:11:39;6.50;99.90
6291;DHT22;3178;48.730;8.990;2023-03-16T08:14:06;6.70;99.90
6291;DHT22;3178;48.730;8.990;2023-03-16T08:16:31;6.80;99.90
6291;DHT22;3178;48.730;8.990;2023-03-16T08:18:57;7.00;99.90
6291;DHT22;3178;48.730;8.990;2023-03-16T08:21:24;7.10;99.90
6291;DHT22;3178;48.730;8.990;2023-03-16T08:23:49;7.30;99.90
6291;DHT22;3178;48.730;8.990;2023-03-16T08:26:17;7.30;99.90
6291;DHT22;3178;48.730;8.990;2023-03-16T08:28:43;7.60;99.90
6291;DHT22;3178;48.730;8.990;2023-03-16T08:31:13;7.80;99.90
6291;DHT22;3178;48.730;8.990;2023-03-16T08:33:44;8.00;99.90
6291;DHT22;3178;48.730;8.990;2023-03-16T08:36:13;8.10;99.90
6291;DHT22;3178;48.730;8.990;2023-03-16T08:38:40;8.20;99.90
6291;DHT22;3178;48.730;8.990;2023-03-16T08:41:06;8.30;99.90
6291;DHT22;3178;48.730;8.990;2023-03-16T08:43:32;8.40;99.90
6291;DHT22;3178;48.730;8.990;2023-03-16T08:45:58;8.70;99.90
6291;DHT22;3178;48.730;8.990;2023-03-16T08:48:25;8.80;99.90
6291;DHT22;3178;48.730;8.990;2023-03-16T08:50:51;9.00;99.90
6291;DHT22;3178;48.730;8.990;2023-03-16T08:53:18;9.30;99.90
6291;DHT22;3178;48.730;8.990;2023-03-16T08:55:44;9.50;99.90
6291;DHT22;3178;48.730;8.990;2023-03-16T08:58:10;9.60;99.90
6291;DHT22;3178;48.730;8.990;2023-03-16T09:00:37;9.60;99.90
6291;DHT22;3178;48.730;8.990;2023-03-16T09:03:03;9.80;99.90
6291;DHT22;3178;48.730;8.990;2023-03-16T09:05:29;9.80;99.90
6291;DHT22;3178;48.730;8.990;2023-03-16T09:07:55;9.80;99.90
6291;DHT22;3178;48.730;8.990;2023-03-16T09:10:21;9.80;99.90
6291;DHT22;3178;48.730;8.990;2023-03-16T09:12:48;9.80;99.90
6291;DHT22;3178;48.730;8.990;2023-03-16T09:15:14;10.00;99.90
6291;DHT22;3178;48.730;8.990;2023-03-16T09:17:40;10.00;99.90
6291;DHT22;3178;48.730;8.990;2023-03-16T09:20:08;10.00;99.90
6291;DHT22;3178;48.730;8.990;2023-03-16T09:22:35;10.00;99.90
6291;DHT22;3178;48.730;8.990;2023-03-16T09:25:03;10.10;99.90
6291;DHT22;3178;48.730;8.990;2023-03-16T09:27:31;10.20;99.90
6291;DHT22;3178;48.730;8.990;2023-03-16T09:29:57;10.10;99.90
6291;DHT22;3178;48.730;8.990;2023-03-16T09:32:25;10.20;99.90
6291;DHT22;3178;48.730;8.990;2023-03-16T09:34:53;10.20;99.90
6291;DHT22;3178;48.730;8.990;2023-03-16T09:37:19;10.20;99.90
6291;DHT22;3178;48.730;8.990;2023-03-16T09:39:44;10.30;99.90
6291;DHT22;3178;48.730;8.990;2023-03-16T09:42:26;10.40;99.90
6291;DHT22;3178;48.730;8.990;2023-03-16T09:47:48;10.40;99.90
6291;DHT22;3178;48.730;8.990;2023-03-16T09:50:24;10.50;99.90
6291;DHT22;3178;48.730;8.990;2023-03-16T09:53:03;10.40;99.90
6291;DHT22;3178;48.730;8.990;2023-03-16T09:55:35;10.30;99.90
6291;DHT22;3178;48.730;8.990;2023-03-16T09:58:04;10.10;99.90
6291;DHT22;3178;48.730;8.990;2023-03-16T10:00:38;10.00;99.90
6291;DHT22;3178;48.730;8.990;2023-03-16T10:03:25;10.00;99.90
6291;DHT22;3178;48.730;8.990;2023-03-16T10:05:59;10.10;99.90
6291;DHT22;3178;48.730;8.990;2023-03-16T10:08:55;10.10;99.90
6291;DHT22;3178;48.730;8.990;2023-03-16T10:11:25;10.20;99.90
6291;DHT22;3178;48.730;8.990;2023-03-16T10:16:33;10.40;99.90
6291;DHT22;3178;48.730;8.990;2023-03-16T10:19:11;10.70;99.90
6291;DHT22;3178;48.730;8.990;2023-03-16T10:21:39;11.00;99.90
6291;DHT22;3178;48.730;8.990;2023-03-16T10:24:15;11.10;99.90
6291;DHT22;3178;48.730;8.990;2023-03-16T10:26:54;11.20;99.90
6291;DHT22;3178;48.730;8.990;2023-03-16T10:29:24;11.20;99.90
6291;DHT22;3178;48.730;8.990;2023-03-16T10:31:54;11.10;99.90
6291;DHT22;3178;48.730;8.990;2023-03-16T10:34:23;11.40;99.90
6291;DHT22;3178;48.730;8.990;2023-03-16T10:36:50;11.80;99.90
6291;DHT22;3178;48.730;8.990;2023-03-16T10:39:17;12.20;99.90
6291;DHT22;3178;48.730;8.990;2023-03-16T10:41:46;12.60;99.90
6291;DHT22;3178;48.730;8.990;2023-03-16T10:44:21;12.80;98.00
6291;DHT22;3178;48.730;8.990;2023-03-16T10:46:50;13.10;96.00
6291;DHT22;3178;48.730;8.990;2023-03-16T10:49:38;13.40;95.60
6291;DHT22;3178;48.730;8.990;2023-03-16T10:52:42;13.60;95.50
6291;DHT22;3178;48.730;8.990;2023-03-16T10:55:20;13.90;93.40
6291;DHT22;3178;48.730;8.990;2023-03-16T10:57:49;13.70;92.50
6291;DHT22;3178;48.730;8.990;2023-03-16T11:00:29;13.80;93.30
6291;DHT22;3178;48.730;8.990;2023-03-16T11:02:57;13.80;92.80
6291;DHT22;3178;48.730;8.990;2023-03-16T11:05:28;13.60;93.60
6291;DHT22;3178;48.730;8.990;2023-03-16T11:08:06;13.70;92.90
6291;DHT22;3178;48.730;8.990;2023-03-16T11:10:41;13.90;92.10
6291;DHT22;3178;48.730;8.990;2023-03-16T11:13:14;13.80;91.50
6291;DHT22;3178;48.730;8.990;2023-03-16T11:15:59;13.60;91.30
6291;DHT22;3178;48.730;8.990;2023-03-16T11:18:38;13.40;91.60
6291;DHT22;3178;48.730;8.990;2023-03-16T11:21:22;13.60;91.80
6291;DHT22;3178;48.730;8.990;2023-03-16T11:23:54;13.80;90.10
6291;DHT22;3178;48.730;8.990;2023-03-16T11:26:27;13.40;88.50
6291;DHT22;3178;48.730;8.990;2023-03-16T11:29:06;13.30;89.70
6291;DHT22;3178;48.730;8.990;2023-03-16T11:31:46;13.30;90.50
6291;DHT22;3178;48.730;8.990;2023-03-16T11:34:17;13.40;90.60
6291;DHT22;3178;48.730;8.990;2023-03-16T11:39:26;13.50;90.70
6291;DHT22;3178;48.730;8.990;2023-03-16T11:42:20;13.60;90.50
6291;DHT22;3178;48.730;8.990;2023-03-16T11:45:00;13.70;87.20
6291;DHT22;3178;48.730;8.990;2023-03-16T11:47:48;13.70;87.60
6291;DHT22;3178;48.730;8.990;2023-03-16T11:53:31;14.00;84.70
6291;DHT22;3178;48.730;8.990;2023-03-16T11:56:32;13.80;85.00
6291;DHT22;3178;48.730;8.990;2023-03-16T12:02:05;13.80;83.70
6291;DHT22;3178;48.730;8.990;2023-03-16T12:07:40;13.90;86.10
6291;DHT22;3178;48.730;8.990;2023-03-16T12:10:22;13.90;84.30
6291;DHT22;3178;48.730;8.990;2023-03-16T12:13:27;13.90;83.70
6291;DHT22;3178;48.730;8.990;2023-03-16T12:16:14;13.90;80.00
6291;DHT22;3178;48.730;8.990;2023-03-16T12:21:21;14.30;81.30
6291;DHT22;3178;48.730;8.990;2023-03-16T12:23:51;14.20;79.00
6291;DHT22;3178;48.730;8.990;2023-03-16T12:26:18;14.20;82.10
6291;DHT22;3178;48.730;8.990;2023-03-16T12:28:46;14.40;80.60
6291;DHT22;3178;48.730;8.990;2023-03-16T12:31:16;14.40;81.10
6291;DHT22;3178;48.730;8.990;2023-03-16T12:33:47;14.80;80.70
6291;DHT22;3178;48.730;8.990;2023-03-16T12:39:01;14.80;80.20
6291;DHT22;3178;48.730;8.990;2023-03-16T12:41:51;14.70;77.50
6291;DHT22;3178;48.730;8.990;2023-03-16T12:44:34;14.70;83.10
6291;DHT22;3178;48.730;8.990;2023-03-16T12:49:34;15.00;75.30
6291;DHT22;3178;48.730;8.990;2023-03-16T12:52:09;15.00;76.40
6291;DHT22;3178;48.730;8.990;2023-03-16T12:54:47;15.50;75.50
6291;DHT22;3178;48.730;8.990;2023-03-16T12:57:15;15.50;74.50
6291;DHT22;3178;48.730;8.990;2023-03-16T12:59:45;15.80;75.60
6291;DHT22;3178;48.730;8.990;2023-03-16T13:02:30;16.20;74.00
6291;DHT22;3178;48.730;8.990;2023-03-16T13:05:02;16.60;73.10
6291;DHT22;3178;48.730;8.990;2023-03-16T13:07:32;16.70;72.80
6291;DHT22;3178;48.730;8.990;2023-03-16T13:10:03;16.50;70.70
6291;DHT22;3178;48.730;8.990;2023-03-16T13:12:34;16.20;69.90
6291;DHT22;3178;48.730;8.990;2023-03-16T13:17:44;15.90;72.00
6291;DHT22;3178;48.730;8.990;2023-03-16T13:22:47;15.20;70.00
6291;DHT22;3178;48.730;8.990;2023-03-16T13:27:54;15.30;71.70
6291;DHT22;3178;48.730;8.990;2023-03-16T13:30:23;15.60;71.10
6291;DHT22;3178;48.730;8.990;2023-03-16T13:32:54;15.30;72.30
6291;DHT22;3178;48.730;8.990;2023-03-16T13:35:25;15.30;71.90
6291;DHT22;3178;48.730;8.990;2023-03-16T13:37:51;15.40;70.90
6291;DHT22;3178;48.730;8.990;2023-03-16T13:40:26;15.20;70.20
6291;DHT22;3178;48.730;8.990;2023-03-16T13:42:52;15.00;70.40
6291;DHT22;3178;48.730;8.990;2023-03-16T13:45:22;14.80;69.30
6291;DHT22;3178;48.730;8.990;2023-03-16T13:47:49;14.50;70.20
6291;DHT22;3178;48.730;8.990;2023-03-16T13:50:16;14.40;72.20
6291;DHT22;3178;48.730;8.990;2023-03-16T13:52:42;14.30;72.10
6291;DHT22;3178;48.730;8.990;2023-03-16T13:55:22;14.40;72.20
6291;DHT22;3178;48.730;8.990;2023-03-16T13:57:50;14.50;73.10
6291;DHT22;3178;48.730;8.990;2023-03-16T14:00:20;14.30;71.10
6291;DHT22;3178;48.730;8.990;2023-03-16T14:02:51;14.20;69.40
6291;DHT22;3178;48.730;8.990;2023-03-16T14:05:20;14.10;68.70
6291;DHT22;3178;48.730;8.990;2023-03-16T14:07:47;14.10;70.60
6291;DHT22;3178;48.730;8.990;2023-03-16T14:10:13;14.00;68.80
6291;DHT22;3178;48.730;8.990;2023-03-16T14:12:56;14.00;73.20
6291;DHT22;3178;48.730;8.990;2023-03-16T14:15:25;14.00;69.20
6291;DHT22;3178;48.730;8.990;2023-03-16T14:17:52;13.90;68.60
6291;DHT22;3178;48.730;8.990;2023-03-16T14:20:21;13.90;70.50
6291;DHT22;3178;48.730;8.990;2023-03-16T14:22:51;13.90;71.20
6291;DHT22;3178;48.730;8.990;2023-03-16T14:25:24;13.80;70.00
6291;DHT22;3178;48.730;8.990;2023-03-16T14:27:58;13.60;69.20
6291;DHT22;3178;48.730;8.990;2023-03-16T14:30:26;13.40;69.70
6291;DHT22;3178;48.730;8.990;2023-03-16T14:33:18;13.40;70.30
6291;DHT22;3178;48.730;8.990;2023-03-16T14:35:53;13.40;70.90
6291;DHT22;3178;48.730;8.990;2023-03-16T14:38:20;13.30;70.30
6291;DHT22;3178;48.730;8.990;2023-03-16T14:41:00;13.30;71.50
6291;DHT22;3178;48.730;8.990;2023-03-16T14:43:33;13.30;70.00
6291;DHT22;3178;48.730;8.990;2023-03-16T14:46:01;13.20;70.00
6291;DHT22;3178;48.730;8.990;2023-03-16T14:48:28;13.10;70.20
6291;DHT22;3178;48.730;8.990;2023-03-16T14:50:57;13.10;72.50
6291;DHT22;3178;48.730;8.990;2023-03-16T14:53:23;13.10;72.70
6291;DHT22;3178;48.730;8.990;2023-03-16T14:55:53;13.20;72.50
6291;DHT22;3178;48.730;8.990;2023-03-16T14:58:19;13.10;70.10
6291;DHT22;3178;48.730;8.990;2023-03-16T15:00:44;13.10;70.20
6291;DHT22;3178;48.730;8.990;2023-03-16T15:03:14;13.10;69.40
6291;DHT22;3178;48.730;8.990;2023-03-16T15:05:42;13.00;70.00
6291;DHT22;3178;48.730;8.990;2023-03-16T15:08:22;12.90;70.00
6291;DHT22;3178;48.730;8.990;2023-03-16T15:10:51;12.90;71.10
6291;DHT22;3178;48.730;8.990;2023-03-16T15:13:19;12.90;70.90
6291;DHT22;3178;48.730;8.990;2023-03-16T15:16:05;12.90;71.20
6291;DHT22;3178;48.730;8.990;2023-03-16T15:18:33;12.90;70.00
6291;DHT22;3178;48.730;8.990;2023-03-16T15:21:00;12.80;69.20
6291;DHT22;3178;48.730;8.990;2023-03-16T15:23:27;12.80;69.60
6291;DHT22;3178;48.730;8.990;2023-03-16T15:25:53;13.00;69.40
6291;DHT22;3178;48.730;8.990;2023-03-16T15:28:25;12.70;68.20
6291;DHT22;3178;48.730;8.990;2023-03-16T15:30:56;12.70;69.30
6291;DHT22;3178;48.730;8.990;2023-03-16T15:33:23;12.50;69.40
6291;DHT22;3178;48.730;8.990;2023-03-16T15:35:50;12.60;69.90
6291;DHT22;3178;48.730;8.990;2023-03-16T15:38:25;12.50;70.90
6291;DHT22;3178;48.730;8.990;2023-03-16T15:40:52;12.40;69.90
6291;DHT22;3178;48.730;8.990;2023-03-16T15:43:20;12.30;69.70
6291;DHT22;3178;48.730;8.990;2023-03-16T15:45:47;12.20;70.20
6291;DHT22;3178;48.730;8.990;2023-03-16T15:48:13;12.20;70.60
6291;DHT22;3178;48.730;8.990;2023-03-16T15:50:41;12.10;70.90
6291;DHT22;3178;48.730;8.990;2023-03-16T15:56:00;12.00;71.20
6291;DHT22;3178;48.730;8.990;2023-03-16T15:58:28;12.00;71.50
6291;DHT22;3178;48.730;8.990;2023-03-16T16:00:55;12.00;71.90
6291;DHT22;3178;48.730;8.990;2023-03-16T16:03:23;12.00;72.70
6291;DHT22;3178;48.730;8.990;2023-03-16T16:05:49;12.00;72.10
6291;DHT22;3178;48.730;8.990;2023-03-16T16:08:15;11.90;71.20
6291;DHT22;3178;48.730;8.990;2023-03-16T16:10:41;11.90;71.90
6291;DHT22;3178;48.730;8.990;2023-03-16T16:13:13;11.80;72.00
6291;DHT22;3178;48.730;8.990;2023-03-16T16:15:40;11.90;72.50
6291;DHT22;3178;48.730;8.990;2023-03-16T16:18:26;11.90;72.60
6291;DHT22;3178;48.730;8.990;2023-03-16T16:20:53;11.80;73.40
6291;DHT22;3178;48.730;8.990;2023-03-16T16:23:20;11.80;73.60
6291;DHT22;3178;48.730;8.990;2023-03-16T16:25:45;11.70;73.30
6291;DHT22;3178;48.730;8.990;2023-03-16T16:28:18;11.70;73.40
6291;DHT22;3178;48.730;8.990;2023-03-16T16:30:44;11.60;73.90
6291;DHT22;3178;48.730;8.990;2023-03-16T16:33:33;11.60;74.40
6291;DHT22;3178;48.730;8.990;2023-03-16T16:36:02;11.60;74.60
6291;DHT22;3178;48.730;8.990;2023-03-16T16:38:28;11.50;74.80
6291;DHT22;3178;48.730;8.990;2023-03-16T16:40:56;11.50;75.80
6291;DHT22;3178;48.730;8.990;2023-03-16T16:43:36;11.40;75.70
6291;DHT22;3178;48.730;8.990;2023-03-16T16:46:04;11.40;75.70
6291;DHT22;3178;48.730;8.990;2023-03-16T16:48:34;11.40;76.50
6291;DHT22;3178;48.730;8.990;2023-03-16T16:51:02;11.30;77.20
6291;DHT22;3178;48.730;8.990;2023-03-16T16:53:28;11.30;77.40
6291;DHT22;3178;48.730;8.990;2023-03-16T16:55:54;11.20;77.20
6291;DHT22;3178;48.730;8.990;2023-03-16T16:58:20;11.20;77.60
6291;DHT22;3178;48.730;8.990;2023-03-16T17:00:55;11.10;77.90
6291;DHT22;3178;48.730;8.990;2023-03-16T17:03:26;11.10;78.60
6291;DHT22;3178;48.730;8.990;2023-03-16T17:05:54;11.00;78.80
6291;DHT22;3178;48.730;8.990;2023-03-16T17:08:20;11.00;79.40